createdAt,value
2022-10-13T00:01:10.771Z,101886.06
2022-10-13T00:03:39.983Z,101878.16
2022-10-13T00:06:10.491Z,101881.69
2022-10-13T00:08:40.520Z,101858.69
2022-10-13T00:11:12.835Z,101877.34
2022-10-13T00:13:41.520Z,101876.50
2022-10-13T00:16:10.631Z,101871.94
2022-10-13T00:18:38.694Z,101865.72
2022-10-13T00:21:08.794Z,101864.06
2022-10-13T00:23:36.924Z,101857.81
2022-10-13T00:26:08.610Z,101857.81
2022-10-13T00:28:37.120Z,101850.53
2022-10-13T00:31:05.562Z,101852.41
2022-10-13T00:33:33.336Z,101847.00
2022-10-13T00:36:01.046Z,101847.00
2022-10-13T00:38:28.785Z,101848.88
2022-10-13T00:40:57.816Z,101848.06
2022-10-13T00:43:28.765Z,101829.41
2022-10-13T00:45:56.461Z,101849.09
2022-10-13T00:48:27.755Z,101845.56
2022-10-13T00:50:56.911Z,101849.31
2022-10-13T00:53:28.503Z,101844.75
2022-10-13T00:55:56.847Z,101847.44
2022-10-13T00:58:31.293Z,101842.25
2022-10-13T01:01:00.305Z,101843.31
2022-10-13T01:03:28.387Z,101822.00
2022-10-13T01:06:00.013Z,101851.41
2022-10-13T01:08:29.071Z,101846.22
2022-10-13T01:11:03.556Z,101841.66
2022-10-13T01:13:39.499Z,101840.81
2022-10-13T01:16:14.103Z,101835.63
2022-10-13T01:18:50.007Z,101840.22
2022-10-13T01:21:25.918Z,101842.91
2022-10-13T01:24:35.330Z,101836.69
2022-10-13T01:27:11.446Z,101839.38
2022-10-13T01:30:06.644Z,101843.97
2022-10-13T01:32:47.506Z,101843.13
2022-10-13T01:35:21.813Z,101844.19
2022-10-13T01:37:56.355Z,101841.47
2022-10-13T01:40:28.414Z,101841.47
2022-10-13T01:42:59.971Z,101837.13
2022-10-13T01:45:35.118Z,101835.25
2022-10-13T01:48:05.924Z,101829.84
2022-10-13T01:50:37.358Z,101836.06
2022-10-13T01:53:08.425Z,101825.50
2022-10-13T01:55:36.246Z,101821.75
2022-10-13T01:58:04.049Z,101826.31
2022-10-13T02:00:44.593Z,101822.56
2022-10-13T02:03:18.811Z,101818.22
2022-10-13T02:05:51.063Z,101809.88
2022-10-13T02:08:26.430Z,101802.84
2022-10-13T02:11:00.044Z,101813.63
2022-10-13T02:13:30.988Z,101794.72
2022-10-13T02:16:02.724Z,101802.84
2022-10-13T02:18:34.332Z,101808.22
2022-10-13T02:21:03.717Z,101809.88
2022-10-13T02:23:33.067Z,101793.91
2022-10-13T02:26:01.319Z,101796.59
2022-10-13T02:28:29.896Z,101793.06
2022-10-13T02:30:58.087Z,101793.91
2022-10-13T02:33:27.234Z,101783.09
2022-10-13T02:35:55.036Z,101781.44
2022-10-13T02:38:22.959Z,101792.25
2022-10-13T02:40:50.723Z,101785.19
2022-10-13T02:43:18.656Z,101781.66
2022-10-13T02:45:46.403Z,101782.50
2022-10-13T02:48:14.201Z,101781.66
2022-10-13T02:50:47.695Z,101777.31
2022-10-13T02:53:15.600Z,101776.47
2022-10-13T02:55:43.364Z,101772.94
2022-10-13T02:58:11.255Z,101774.81
2022-10-13T03:00:39.733Z,101763.19
2022-10-13T03:03:07.729Z,101770.47
2022-10-13T03:05:35.557Z,101767.75
2022-10-13T03:08:04.775Z,101770.47
2022-10-13T03:10:33.062Z,101768.81
2022-10-13T03:13:00.912Z,101773.16
2022-10-13T03:15:28.796Z,101765.72
2022-10-13T03:17:56.627Z,101766.13
2022-10-13T03:20:24.516Z,101766.13
2022-10-13T03:22:53.045Z,101763.41
2022-10-13T03:25:22.107Z,101765.28
2022-10-13T03:27:49.868Z,101762.59
2022-10-13T03:30:17.710Z,101753.66
2022-10-13T03:32:45.624Z,101754.91
2022-10-13T03:35:13.347Z,101750.97
2022-10-13T03:37:41.152Z,101748.47
2022-10-13T03:40:10.906Z,101750.13
2022-10-13T03:42:40.619Z,101743.06
2022-10-13T03:45:10.725Z,101740.38
2022-10-13T03:47:38.525Z,101753.03
2022-10-13T03:50:07.351Z,101750.13
2022-10-13T03:52:35.298Z,101741.19
2022-10-13T03:55:03.453Z,101744.94
2022-10-13T03:57:31.186Z,101746.38
2022-10-13T04:00:00.507Z,101747.44
2022-10-13T04:02:28.574Z,101736.63
2022-10-13T04:04:56.687Z,101732.06
2022-10-13T04:07:24.525Z,101726.66
2022-10-13T04:09:52.277Z,101732.28
2022-10-13T04:12:21.221Z,101725.81
2022-10-13T04:14:49.130Z,101726.66
2022-10-13T04:17:18.265Z,101734.16
2022-10-13T04:19:46.082Z,101734.97
2022-10-13T04:22:13.922Z,101738.28
2022-10-13T04:24:41.857Z,101726.03
2022-10-13T04:27:10.132Z,101734.97
2022-10-13T04:29:38.181Z,101724.16
2022-10-13T04:32:06.441Z,101712.53
2022-10-13T04:34:35.600Z,101712.53
2022-10-13T04:37:03.343Z,101704.44
2022-10-13T04:39:31.294Z,101691.97
2022-10-13T04:41:59.102Z,101697.38
2022-10-13T04:44:26.850Z,101700.31
2022-10-13T04:46:54.590Z,101697.38
2022-10-13T04:49:22.318Z,101696.78
2022-10-13T04:51:51.523Z,101699.25
2022-10-13T04:54:19.291Z,101695.72
2022-10-13T04:56:47.060Z,101700.31
2022-10-13T04:59:14.860Z,101691.38
2022-10-13T05:01:43.015Z,101687.84
2022-10-13T05:04:11.435Z,101695.13
2022-10-13T05:07:05.359Z,101683.50
2022-10-13T05:09:30.554Z,101691.38
2022-10-13T05:11:58.343Z,101691.59
2022-10-13T05:14:26.340Z,101710.28
2022-10-13T05:16:54.183Z,101688.91
2022-10-13T05:19:21.903Z,101690.78
2022-10-13T05:21:49.651Z,101688.91
2022-10-13T05:24:17.354Z,101696.16
2022-10-13T05:26:46.551Z,101701.56
2022-10-13T05:29:14.303Z,101698.88
2022-10-13T05:31:42.013Z,101689.72
2022-10-13T05:34:10.415Z,101693.47
2022-10-13T05:36:38.212Z,101699.69
2022-10-13T05:39:08.406Z,101710.50
2022-10-13T05:41:36.338Z,101710.50
2022-10-13T05:44:09.227Z,101702.19
2022-10-13T05:46:37.212Z,101706.75
2022-10-13T05:49:05.728Z,101705.09
2022-10-13T05:51:36.207Z,101695.13
2022-10-13T05:54:07.791Z,101707.56
2022-10-13T05:56:41.345Z,101697.81
2022-10-13T05:59:14.483Z,101699.47
2022-10-13T06:01:44.323Z,101690.53
2022-10-13T06:04:16.162Z,101698.66
2022-10-13T06:06:43.989Z,101682.66
2022-10-13T06:09:11.957Z,101684.31
2022-10-13T06:11:39.766Z,101685.16
2022-10-13T06:14:07.599Z,101682.66
2022-10-13T06:16:37.591Z,101681.84
2022-10-13T06:19:06.092Z,101683.50
2022-10-13T06:21:36.331Z,101660.50
2022-10-13T06:24:04.468Z,101684.31
2022-10-13T06:26:32.200Z,101672.69
2022-10-13T06:29:00.190Z,101670.81
2022-10-13T06:31:28.437Z,101652.81
2022-10-13T06:33:57.595Z,101656.25
2022-10-13T06:36:25.612Z,101662.72
2022-10-13T06:38:53.358Z,101663.53
2022-10-13T06:41:21.127Z,101668.94
2022-10-13T06:43:49.612Z,101668.13
2022-10-13T06:46:17.429Z,101668.13
2022-10-13T06:48:45.181Z,101670.00
2022-10-13T06:51:14.449Z,101664.59
2022-10-13T06:53:42.181Z,101665.19
2022-10-13T06:56:10.495Z,101667.06
2022-10-13T06:58:38.643Z,101665.19
2022-10-13T07:01:07.747Z,101667.06
2022-10-13T07:03:35.607Z,101680.56
2022-10-13T07:06:03.905Z,101684.94
2022-10-13T07:08:34.500Z,101676.81
2022-10-13T07:11:11.638Z,101676.00
2022-10-13T07:13:46.332Z,101670.16
2022-10-13T07:16:15.657Z,101670.16
2022-10-13T07:18:43.432Z,101675.34
2022-10-13T07:21:11.488Z,101669.72
2022-10-13T07:23:40.713Z,101678.63
2022-10-13T07:26:09.847Z,101672.63
2022-10-13T07:28:37.812Z,101680.28
2022-10-13T07:31:11.112Z,101678.41
2022-10-13T07:33:39.608Z,101679.25
2022-10-13T07:36:08.014Z,101679.84
2022-10-13T07:38:35.893Z,101681.50
2022-10-13T07:41:07.664Z,101666.03
2022-10-13T07:43:35.659Z,101684.44
2022-10-13T07:46:05.678Z,101675.50
2022-10-13T07:48:34.173Z,101677.16
2022-10-13T07:51:05.096Z,101678.38
2022-10-13T07:53:32.831Z,101670.25
2022-10-13T07:56:01.849Z,101672.75
2022-10-13T07:58:31.012Z,101674.63
2022-10-13T08:00:59.657Z,101666.50
2022-10-13T08:03:28.318Z,101671.91
2022-10-13T08:05:56.823Z,101668.38
2022-10-13T08:08:24.595Z,101671.69
2022-10-13T08:10:55.588Z,101673.34
2022-10-13T08:13:23.472Z,101667.94
2022-10-13T08:15:52.606Z,101669.59
2022-10-13T08:18:20.379Z,101668.94
2022-10-13T08:20:48.168Z,101662.91
2022-10-13T08:23:15.919Z,101657.50
2022-10-13T08:25:45.144Z,101669.38
2022-10-13T08:28:19.171Z,101652.19
2022-10-13T08:30:47.811Z,101666.44
2022-10-13T08:33:17.413Z,101654.59
2022-10-13T08:35:45.192Z,101647.31
2022-10-13T08:38:12.939Z,101658.72
2022-10-13T08:40:41.671Z,101662.03
2022-10-13T08:43:10.383Z,101659.09
2022-10-13T08:45:42.339Z,101663.69
2022-10-13T08:48:13.858Z,101659.34
2022-10-13T08:50:45.477Z,101656.63
2022-10-13T08:53:18.981Z,101659.56
2022-10-13T08:55:49.368Z,101656.84
2022-10-13T08:58:27.070Z,101653.94
2022-10-13T09:01:06.629Z,101653.94
2022-10-13T09:03:43.216Z,101656.63
2022-10-13T09:06:16.625Z,101650.41
2022-10-13T09:08:49.978Z,101646.66
2022-10-13T09:11:17.758Z,101652.06
2022-10-13T09:13:45.479Z,101645.00
2022-10-13T09:16:13.758Z,101640.63
2022-10-13T09:18:41.685Z,101642.28
2022-10-13T09:21:30.132Z,101639.59
2022-10-13T09:24:08.157Z,101628.63
2022-10-13T09:26:39.388Z,101639.16
2022-10-13T09:29:10.247Z,101639.16
2022-10-13T09:31:38.832Z,101636.44
2022-10-13T09:34:24.609Z,101641.63
2022-10-13T09:37:01.944Z,101640.56
2022-10-13T09:39:30.703Z,101644.09
2022-10-13T09:42:22.165Z,101636.81
2022-10-13T09:44:58.636Z,101621.44
2022-10-13T09:47:29.144Z,101624.13
2022-10-13T09:50:16.016Z,101606.34
2022-10-13T09:52:46.122Z,101621.44
2022-10-13T09:55:32.607Z,101623.91
2022-10-13T09:58:07.237Z,101617.69
2022-10-13T10:00:35.339Z,101623.91
2022-10-13T10:03:07.372Z,101613.94
2022-10-13T10:05:45.883Z,101622.03
2022-10-13T10:08:28.869Z,101615.31
2022-10-13T10:11:04.407Z,101613.38
2022-10-13T10:13:32.489Z,101611.34
2022-10-13T10:16:06.893Z,101605.91
2022-10-13T10:18:40.652Z,101604.28
2022-10-13T10:21:14.657Z,101604.00
2022-10-13T10:23:52.556Z,101602.06
2022-10-13T10:26:27.680Z,101588.28
2022-10-13T10:29:12.000Z,101596.31
2022-10-13T10:31:59.078Z,101607.22
2022-10-13T10:34:34.684Z,101605.09
2022-10-13T10:37:15.021Z,101602.13
2022-10-13T10:39:48.900Z,101604.09
2022-10-13T10:42:51.237Z,101606.88
2022-10-13T10:45:24.103Z,101594.66
2022-10-13T10:47:54.733Z,101601.56
2022-10-13T10:50:23.688Z,101595.53
2022-10-13T10:52:58.773Z,101605.75
2022-10-13T10:55:33.980Z,101596.44
2022-10-13T10:58:13.620Z,101592.09
2022-10-13T11:00:49.744Z,101593.13
2022-10-13T11:03:27.604Z,101593.38
2022-10-13T11:06:07.685Z,101603.13
2022-10-13T11:08:42.472Z,101588.19
2022-10-13T11:11:39.992Z,101593.59
2022-10-13T11:14:31.383Z,101590.06
2022-10-13T11:17:18.204Z,101590.28
2022-10-13T11:19:47.968Z,101577.00
2022-10-13T11:22:19.156Z,101582.41
2022-10-13T11:24:59.254Z,101576.41
2022-10-13T11:27:40.285Z,101578.50
2022-10-13T11:30:50.980Z,101568.53
2022-10-13T11:33:52.813Z,101571.47
2022-10-13T11:36:37.961Z,101566.06
2022-10-13T11:39:36.139Z,101573.34
2022-10-13T11:42:17.146Z,101566.28
2022-10-13T11:44:55.021Z,101558.16
2022-10-13T11:47:47.274Z,101557.34
2022-10-13T11:50:22.312Z,101556.53
2022-10-13T11:53:04.364Z,101555.47
2022-10-13T11:55:40.419Z,101557.13
2022-10-13T11:58:15.596Z,101556.06
2022-10-13T12:00:53.624Z,101551.72
2022-10-13T12:03:22.825Z,101539.00
2022-10-13T12:05:52.059Z,101553.34
2022-10-13T12:08:22.029Z,101552.53
2022-10-13T12:10:57.409Z,101551.09
2022-10-13T12:13:28.222Z,101555.25
2022-10-13T12:16:03.450Z,101545.47
2022-10-13T12:18:34.231Z,101548.19
2022-10-13T12:21:05.630Z,101540.91
2022-10-13T12:23:33.913Z,101546.31
2022-10-13T12:26:03.828Z,101544.66
2022-10-13T12:28:46.985Z,101530.41
2022-10-13T12:31:21.436Z,101539.84
2022-10-13T12:33:54.881Z,101537.13
2022-10-13T12:36:29.963Z,101509.69
2022-10-13T12:39:01.941Z,101528.19
2022-10-13T12:41:32.969Z,101529.03
2022-10-13T12:44:04.051Z,101513.13
2022-10-13T12:46:40.947Z,101513.72
2022-10-13T12:49:13.683Z,101527.16
2022-10-13T12:51:42.657Z,101527.97
2022-10-13T12:54:19.337Z,101521.75
2022-10-13T12:56:48.763Z,101527.16
2022-10-13T12:59:20.965Z,101525.28
2022-10-13T13:02:00.193Z,101517.97
2022-10-13T13:04:48.920Z,101511.75
2022-10-13T13:07:33.540Z,101510.69
2022-10-13T13:10:16.467Z,101510.69
2022-10-13T13:12:45.248Z,101518.81
2022-10-13T13:15:33.953Z,101514.22
2022-10-13T13:18:37.976Z,101513.41
2022-10-13T13:21:07.175Z,101501.84
2022-10-13T13:23:35.891Z,101506.13
2022-10-13T13:26:08.022Z,101508.00
2022-10-13T13:28:35.826Z,101510.69
2022-10-13T13:31:03.615Z,101511.28
2022-10-13T13:33:31.465Z,101515.03
2022-10-13T13:36:00.646Z,101504.00
2022-10-13T13:38:28.524Z,101507.53
2022-10-13T13:41:00.007Z,101502.13
2022-10-13T13:43:29.270Z,101506.47
2022-10-13T13:45:57.185Z,101499.19
2022-10-13T13:48:26.730Z,101495.44
2022-10-13T13:50:54.530Z,101502.50
2022-10-13T13:53:23.690Z,101493.56
2022-10-13T13:55:52.149Z,101498.72
2022-10-13T13:58:20.764Z,101491.66
2022-10-13T14:00:49.109Z,101498.72
2022-10-13T14:03:19.394Z,101493.31
2022-10-13T14:05:47.536Z,101494.16
2022-10-13T14:08:15.298Z,101493.31
2022-10-13T14:10:44.489Z,101489.56
2022-10-13T14:13:12.378Z,101494.16
2022-10-13T14:15:40.206Z,101496.84
2022-10-13T14:18:08.184Z,101492.88
2022-10-13T14:20:35.945Z,101489.94
2022-10-13T14:23:03.852Z,101486.41
2022-10-13T14:25:33.340Z,101491.81
2022-10-13T14:28:02.413Z,101493.69
2022-10-13T14:30:30.130Z,101490.16
2022-10-13T14:32:57.888Z,101488.50
2022-10-13T14:35:25.631Z,101485.56
2022-10-13T14:37:53.348Z,101486.84
2022-10-13T14:40:21.048Z,101485.56
2022-10-13T14:42:49.061Z,101484.50
2022-10-13T14:45:18.589Z,101487.22
2022-10-13T14:47:46.347Z,101489.94
2022-10-13T14:50:14.175Z,101487.22
2022-10-13T14:52:41.872Z,101490.53
2022-10-13T14:55:10.591Z,101475.34
2022-10-13T14:57:38.351Z,101475.34
2022-10-13T15:00:07.028Z,101478.28
2022-10-13T15:02:36.175Z,101474.53
2022-10-13T15:05:03.932Z,101480.75
2022-10-13T15:07:31.700Z,101473.69
2022-10-13T15:10:06.828Z,101469.13
2022-10-13T15:12:35.035Z,101462.66
2022-10-13T15:15:02.857Z,101461.00
2022-10-13T15:17:31.612Z,101468.06
2022-10-13T15:20:01.281Z,101474.69
2022-10-13T15:22:29.142Z,101473.00
2022-10-13T15:24:56.868Z,101472.41
2022-10-13T15:27:25.431Z,101469.94
2022-10-13T15:29:53.230Z,101474.28
2022-10-13T15:32:21.868Z,101473.00
2022-10-13T15:34:49.775Z,101471.13
2022-10-13T15:37:19.023Z,101467.59
2022-10-13T15:39:46.746Z,101465.50
2022-10-13T15:42:14.647Z,101459.06
2022-10-13T15:45:09.318Z,101466.94
2022-10-13T15:47:30.420Z,101475.03
2022-10-13T15:49:58.164Z,101473.16
2022-10-13T15:52:32.208Z,101469.63
2022-10-13T15:55:02.348Z,101467.75
2022-10-13T15:57:31.570Z,101463.41
2022-10-13T15:59:59.323Z,101467.75
2022-10-13T16:02:27.036Z,101466.69
2022-10-13T16:04:55.423Z,101463.75
2022-10-13T16:07:23.156Z,101458.34
2022-10-13T16:09:52.235Z,101461.88
2022-10-13T16:12:20.274Z,101456.47
2022-10-13T16:14:48.283Z,101468.13
2022-10-13T16:17:16.085Z,101461.88
2022-10-13T16:19:44.051Z,101458.34
2022-10-13T16:22:12.072Z,101456.47
2022-10-13T16:24:40.040Z,101448.50
2022-10-13T16:27:09.616Z,101450.59
2022-10-13T16:29:37.532Z,101457.88
2022-10-13T16:32:05.397Z,101455.41
2022-10-13T16:34:33.320Z,101455.41
2022-10-13T16:37:01.035Z,101453.78
2022-10-13T16:39:28.801Z,101465.41
2022-10-13T16:41:56.668Z,101466.25
2022-10-13T16:44:26.108Z,101466.25
2022-10-13T16:46:53.915Z,101463.53
2022-10-13T16:49:21.632Z,101463.75
2022-10-13T16:51:49.663Z,101476.00
2022-10-13T16:54:17.530Z,101474.34
2022-10-13T16:56:45.560Z,101475.41
2022-10-13T16:59:13.333Z,101469.75
2022-10-13T17:01:42.471Z,101471.41
2022-10-13T17:04:10.271Z,101472.25
2022-10-13T17:06:39.445Z,101476.81
2022-10-13T17:09:07.236Z,101482.00
2022-10-13T17:11:37.210Z,101485.75
2022-10-13T17:14:06.724Z,101489.06
2022-10-13T17:16:35.875Z,101496.13
2022-10-13T17:19:05.057Z,101493.66
2022-10-13T17:21:32.912Z,101493.41
2022-10-13T17:24:00.716Z,101499.88
2022-10-13T17:26:28.642Z,101490.94
2022-10-13T17:28:56.448Z,101491.75
2022-10-13T17:31:25.277Z,101492.81
2022-10-13T17:33:54.633Z,101488.56
2022-10-13T17:36:25.787Z,101499.66
2022-10-13T17:38:55.894Z,101501.06
2022-10-13T17:41:24.867Z,101501.66
2022-10-13T17:43:54.475Z,101503.91
2022-10-13T17:46:36.258Z,101504.72
2022-10-13T17:49:05.366Z,101508.25
2022-10-13T17:51:34.749Z,101510.97
2022-10-13T17:54:02.747Z,101512.59
2022-10-13T17:56:30.986Z,101505.41
2022-10-13T17:59:00.248Z,101516.97
2022-10-13T18:01:30.050Z,101518.00
2022-10-13T18:03:59.785Z,101515.91
2022-10-13T18:06:31.468Z,101505.44
2022-10-13T18:09:07.095Z,101520.63
2022-10-13T18:11:35.220Z,101493.53
2022-10-13T18:14:03.530Z,101509.56
2022-10-13T18:16:31.406Z,101519.31
2022-10-13T18:18:59.217Z,101518.50
2022-10-13T18:21:27.457Z,101521.22
2022-10-13T18:23:56.384Z,101523.09
2022-10-13T18:26:26.474Z,101516.03
2022-10-13T18:28:54.948Z,101517.91
2022-10-13T18:31:24.863Z,101522.50
2022-10-13T18:33:53.240Z,101522.50
2022-10-13T18:36:23.561Z,101514.63
2022-10-13T18:38:52.222Z,101531.06
2022-10-13T18:41:22.486Z,101525.66
2022-10-13T18:43:51.889Z,101525.66
2022-10-13T18:46:20.273Z,101528.84
2022-10-13T18:48:48.304Z,101526.13
2022-10-13T18:51:17.766Z,101520.72
2022-10-13T18:53:47.090Z,101528.00
2022-10-13T18:56:16.311Z,101535.91
2022-10-13T18:58:44.103Z,101532.59
2022-10-13T19:01:17.282Z,101520.72
2022-10-13T19:03:46.132Z,101516.38
2022-10-13T19:06:15.179Z,101529.06
2022-10-13T19:08:43.784Z,101530.13
2022-10-13T19:11:12.894Z,101523.88
2022-10-13T19:13:40.788Z,101522.25
2022-10-13T19:16:09.161Z,101526.81
2022-10-13T19:18:38.991Z,101526.00
2022-10-13T19:21:07.427Z,101532.47
2022-10-13T19:23:35.416Z,101535.19
2022-10-13T19:26:11.161Z,101522.22
2022-10-13T19:28:41.915Z,101531.88
2022-10-13T19:31:10.605Z,101530.81
2022-10-13T19:33:44.653Z,101523.03
2022-10-13T19:36:20.371Z,101540.81
2022-10-13T19:38:48.101Z,101541.88
2022-10-13T19:41:17.614Z,101543.75
2022-10-13T19:43:45.409Z,101543.75
2022-10-13T19:46:13.707Z,101532.94
2022-10-13T19:48:43.271Z,101540.22
2022-10-13T19:51:11.378Z,101534.81
2022-10-13T19:53:39.744Z,101535.03
2022-10-13T19:56:08.536Z,101535.03
2022-10-13T19:58:36.711Z,101537.75
2022-10-13T20:01:08.281Z,101541.50
2022-10-13T20:03:36.606Z,101545.88
2022-10-13T20:06:07.324Z,101544.22
2022-10-13T20:08:35.035Z,101549.63
2022-10-13T20:11:07.354Z,101538.81
2022-10-13T20:13:35.109Z,101543.38
2022-10-13T20:16:07.068Z,101544.22
2022-10-13T20:18:35.888Z,101544.22
2022-10-13T20:21:04.730Z,101547.16
2022-10-13T20:23:34.558Z,101544.44
2022-10-13T20:26:06.757Z,101544.44
2022-10-13T20:28:40.559Z,101547.97
2022-10-13T20:31:11.533Z,101544.69
2022-10-13T20:33:40.112Z,101546.31
2022-10-13T20:36:09.644Z,101547.16
2022-10-13T20:38:39.394Z,101531.25
2022-10-13T20:41:07.982Z,101543.84
2022-10-13T20:43:35.810Z,101551.97
2022-10-13T20:46:05.441Z,101550.91
2022-10-13T20:48:57.822Z,101550.31
2022-10-13T20:51:24.384Z,101545.72
2022-10-13T20:53:53.674Z,101537.09
2022-10-13T20:56:23.279Z,101553.84
2022-10-13T20:58:51.687Z,101543.13
2022-10-13T21:01:21.633Z,101551.13
2022-10-13T21:03:52.872Z,101553.84
2022-10-13T21:06:21.149Z,101554.06
2022-10-13T21:08:49.112Z,101554.06
2022-10-13T21:11:20.149Z,101556.19
2022-10-13T21:13:49.674Z,101567.81
2022-10-13T21:16:19.641Z,101564.31
2022-10-13T21:18:49.253Z,101557.00
2022-10-13T21:21:19.452Z,101554.53
2022-10-13T21:23:50.189Z,101558.06
2022-10-13T21:26:22.007Z,101539.19
2022-10-13T21:28:50.969Z,101553.72
2022-10-13T21:31:20.164Z,101545.59
2022-10-13T21:33:47.893Z,101546.66
2022-10-13T21:36:17.452Z,101543.72
2022-10-13T21:38:46.457Z,101542.91
2022-10-13T21:41:15.423Z,101548.53
2022-10-13T21:43:44.547Z,101542.06
2022-10-13T21:46:13.979Z,101540.19
2022-10-13T21:48:42.067Z,101543.13
2022-10-13T21:51:15.370Z,101541.25
2022-10-13T21:53:43.880Z,101546.66
2022-10-13T21:56:12.617Z,101542.91
2022-10-13T21:58:40.835Z,101536.66
2022-10-13T22:01:10.299Z,101533.13
2022-10-13T22:03:38.226Z,101533.13
2022-10-13T22:06:08.001Z,101537.72
2022-10-13T22:08:38.976Z,101522.59
2022-10-13T22:11:08.774Z,101529.66
2022-10-13T22:13:36.975Z,101535.84
2022-10-13T22:16:06.068Z,101528.53
2022-10-13T22:18:35.271Z,101525.22
2022-10-13T22:21:03.391Z,101494.84
2022-10-13T22:23:31.556Z,101520.66
2022-10-13T22:25:59.350Z,101527.91
2022-10-13T22:28:27.360Z,101513.56
2022-10-13T22:30:55.202Z,101513.56
2022-10-13T22:33:23.139Z,101518.16
2022-10-13T22:35:52.232Z,101521.69
2022-10-13T22:38:19.966Z,101516.28
2022-10-13T22:40:47.667Z,101508.16
2022-10-13T22:43:15.382Z,101510.03
2022-10-13T22:45:51.292Z,101504.63
2022-10-13T22:48:19.070Z,101507.34
2022-10-13T22:50:46.898Z,101504.63
2022-10-13T22:53:16.143Z,101506.50
2022-10-13T22:55:43.862Z,101495.69
2022-10-13T22:58:11.971Z,101496.75
2022-10-13T23:00:40.675Z,101485.22
2022-10-13T23:03:08.484Z,101497.81
2022-10-13T23:05:36.240Z,101495.09
2022-10-13T23:08:03.975Z,101495.09
2022-10-13T23:10:33.060Z,101503.22
2022-10-13T23:13:00.815Z,101503.22
2022-10-13T23:15:28.626Z,101498.28
2022-10-13T23:17:56.392Z,101499.69
2022-10-13T23:20:24.466Z,101491.56
2022-10-13T23:22:52.553Z,101492.63
2022-10-13T23:25:20.329Z,101485.34
2022-10-13T23:27:49.475Z,101479.34
2022-10-13T23:30:17.722Z,101472.88
2022-10-13T23:32:45.663Z,101469.34
2022-10-13T23:35:13.422Z,101465.81
2022-10-13T23:37:41.429Z,101463.94
2022-10-13T23:40:10.335Z,101460.41
2022-10-13T23:42:38.162Z,101468.53
2022-10-13T23:45:08.205Z,101463.94
2022-10-13T23:47:35.970Z,101456.66
2022-10-13T23:50:03.772Z,101458.53
2022-10-13T23:52:31.547Z,101463.94
2022-10-13T23:54:59.291Z,101463.13
2022-10-13T23:57:27.006Z,101442.63
2022-10-13T23:59:54.861Z,101455.00
